ANZ224T NZAA-NZWN
Flight info
| Callsign | ANZ224T |
|---|---|
| Flight time | 1h 12m |
| Altitude | 36000 |
| Route | IGBAT Y506 TPAPA |
| Aircraft | A320/M-SDE3FGHIRWY/LB1 |
Departure
| Time | 2026-05-05 23:34 |
|---|---|
| Airport | Auckland International Airport (NZAA) |
Arrival
| Time | 2026-05-06 00:46 |
|---|---|
| Airport | Wellington International Airport (NZWN) |
| Time | Latitude | Longitude | Altitude | Speed | Heading |
|---|---|---|---|---|---|
| 2026-05-05 23:06 | -37.00727 | 174.78870 | 26 ft | 0 kts | 71° |
| 2026-05-05 23:24 | -37.00733 | 174.78849 | 25 ft | 4 kts | 80° |
| 2026-05-05 23:24 | -37.00732 | 174.78821 | 27 ft | 4 kts | 137° |
| 2026-05-05 23:25 | -37.00733 | 174.78818 | 28 ft | 4 kts | 161° |
| 2026-05-05 23:25 | -37.00758 | 174.78829 | 28 ft | 4 kts | 161° |
| 2026-05-05 23:25 | -37.00780 | 174.78838 | 27 ft | 1 kts | 161° |
| 2026-05-05 23:29 | -37.00793 | 174.78844 | 28 ft | 4 kts | 161° |
| 2026-05-05 23:30 | -37.00834 | 174.78861 | 27 ft | 8 kts | 161° |
| 2026-05-05 23:30 | -37.00897 | 174.78882 | 28 ft | 11 kts | 162° |
| 2026-05-05 23:30 | -37.00955 | 174.78837 | 28 ft | 12 kts | 250° |
| 2026-05-05 23:30 | -37.00984 | 174.78728 | 29 ft | 15 kts | 251° |
| 2026-05-05 23:31 | -37.01020 | 174.78595 | 25 ft | 18 kts | 251° |
| 2026-05-05 23:31 | -37.01064 | 174.78436 | 26 ft | 21 kts | 251° |
| 2026-05-05 23:31 | -37.01115 | 174.78252 | 27 ft | 24 kts | 251° |
| 2026-05-05 23:31 | -37.01172 | 174.78042 | 26 ft | 27 kts | 251° |
| 2026-05-05 23:32 | -37.01231 | 174.77834 | 26 ft | 14 kts | 250° |
| 2026-05-05 23:32 | -37.01275 | 174.77773 | 29 ft | 10 kts | 179° |
| 2026-05-05 23:32 | -37.01350 | 174.77804 | 29 ft | 13 kts | 161° |
| 2026-05-05 23:32 | -37.01415 | 174.77858 | 27 ft | 11 kts | 94° |
| 2026-05-05 23:33 | -37.01407 | 174.77894 | 26 ft | 0 kts | 70° |
| 2026-05-05 23:33 | -37.01370 | 174.78028 | 26 ft | 52 kts | 71° |
| 2026-05-05 23:33 | -37.01170 | 174.78750 | 26 ft | 119 kts | 71° |
| 2026-05-05 23:33 | -37.00843 | 174.79924 | 200 ft | 153 kts | 68° |
| 2026-05-05 23:34 | -37.00512 | 174.81168 | 988 ft | 150 kts | 70° |
| 2026-05-05 23:34 | -37.00215 | 174.82422 | 1842 ft | 150 kts | 70° |
| 2026-05-05 23:34 | -36.99940 | 174.83723 | 2441 ft | 167 kts | 79° |
| 2026-05-05 23:34 | -37.00190 | 174.85241 | 2888 ft | 196 kts | 119° |
| 2026-05-05 23:35 | -37.01362 | 174.86279 | 3263 ft | 225 kts | 167° |
| 2026-05-05 23:35 | -37.02962 | 174.86100 | 3864 ft | 235 kts | 197° |
| 2026-05-05 23:35 | -37.04507 | 174.85456 | 4801 ft | 235 kts | 200° |
| 2026-05-05 23:35 | -37.06049 | 174.84742 | 5625 ft | 238 kts | 201° |
| 2026-05-05 23:36 | -37.07608 | 174.83998 | 6442 ft | 241 kts | 201° |
| 2026-05-05 23:36 | -37.09195 | 174.83264 | 7239 ft | 245 kts | 201° |
| 2026-05-05 23:36 | -37.10813 | 174.82553 | 8017 ft | 248 kts | 200° |
| 2026-05-05 23:36 | -37.12468 | 174.81875 | 8811 ft | 252 kts | 199° |
| 2026-05-05 23:37 | -37.14145 | 174.81212 | 9633 ft | 255 kts | 199° |
| 2026-05-05 23:37 | -37.15912 | 174.80512 | 10077 ft | 279 kts | 199° |
| 2026-05-05 23:37 | -37.17841 | 174.79743 | 10472 ft | 303 kts | 199° |
| 2026-05-05 23:37 | -37.19926 | 174.78909 | 10800 ft | 327 kts | 199° |
| 2026-05-05 23:38 | -37.22170 | 174.78010 | 11063 ft | 351 kts | 199° |
| 2026-05-05 23:38 | -37.24569 | 174.77048 | 11391 ft | 369 kts | 199° |
| 2026-05-05 23:38 | -37.27049 | 174.76057 | 12065 ft | 376 kts | 199° |
| 2026-05-05 23:38 | -37.29554 | 174.75054 | 12812 ft | 380 kts | 199° |
| 2026-05-05 23:39 | -37.32084 | 174.74036 | 13569 ft | 384 kts | 199° |
| 2026-05-05 23:39 | -37.34636 | 174.73003 | 14323 ft | 387 kts | 199° |
| 2026-05-05 23:39 | -37.37210 | 174.71959 | 14981 ft | 390 kts | 199° |
| 2026-05-05 23:39 | -37.39803 | 174.70907 | 15620 ft | 394 kts | 199° |
| 2026-05-05 23:40 | -37.42395 | 174.69856 | 16285 ft | 397 kts | 199° |
| 2026-05-05 23:40 | -37.45036 | 174.68784 | 16944 ft | 400 kts | 199° |
| 2026-05-05 23:40 | -37.47696 | 174.67709 | 17625 ft | 403 kts | 200° |
| 2026-05-05 23:40 | -37.50381 | 174.66626 | 18299 ft | 407 kts | 200° |
| 2026-05-05 23:41 | -37.53098 | 174.65528 | 18954 ft | 411 kts | 200° |
| 2026-05-05 23:41 | -37.55827 | 174.64421 | 19604 ft | 413 kts | 200° |
| 2026-05-05 23:41 | -37.58578 | 174.63347 | 20283 ft | 415 kts | 198° |
| 2026-05-05 23:41 | -37.61371 | 174.62395 | 20968 ft | 416 kts | 196° |
| 2026-05-05 23:42 | -37.64186 | 174.61533 | 21609 ft | 417 kts | 195° |
| 2026-05-05 23:42 | -37.67018 | 174.60709 | 22218 ft | 418 kts | 194° |
| 2026-05-05 23:42 | -37.69855 | 174.59890 | 22801 ft | 419 kts | 194° |
| 2026-05-05 23:42 | -37.72696 | 174.59051 | 23365 ft | 420 kts | 195° |
| 2026-05-05 23:43 | -37.75539 | 174.58184 | 23910 ft | 421 kts | 195° |
| 2026-05-05 23:43 | -37.78386 | 174.57295 | 24365 ft | 422 kts | 195° |
| 2026-05-05 23:43 | -37.81241 | 174.56392 | 24793 ft | 423 kts | 195° |
| 2026-05-05 23:43 | -37.84104 | 174.55481 | 25211 ft | 425 kts | 195° |
| 2026-05-05 23:44 | -37.86976 | 174.54571 | 25619 ft | 426 kts | 195° |
| 2026-05-05 23:44 | -37.89862 | 174.53665 | 26030 ft | 428 kts | 195° |
| 2026-05-05 23:44 | -37.92758 | 174.52762 | 26436 ft | 430 kts | 195° |
| 2026-05-05 23:44 | -37.95664 | 174.51855 | 26838 ft | 431 kts | 195° |
| 2026-05-05 23:45 | -37.98615 | 174.51096 | 27230 ft | 435 kts | 189° |
| 2026-05-05 23:45 | -38.01629 | 174.50674 | 27609 ft | 437 kts | 188° |
| 2026-05-05 23:45 | -38.04653 | 174.50255 | 27987 ft | 438 kts | 188° |
| 2026-05-05 23:45 | -38.07690 | 174.49831 | 28364 ft | 440 kts | 188° |
| 2026-05-05 23:46 | -38.10737 | 174.49403 | 28735 ft | 441 kts | 188° |
| 2026-05-05 23:46 | -38.13790 | 174.48974 | 29077 ft | 443 kts | 188° |
| 2026-05-05 23:46 | -38.16861 | 174.48546 | 29398 ft | 444 kts | 188° |
| 2026-05-05 23:46 | -38.19929 | 174.48121 | 29829 ft | 442 kts | 188° |
| 2026-05-05 23:47 | -38.22982 | 174.47700 | 30307 ft | 440 kts | 188° |
| 2026-05-05 23:47 | -38.26021 | 174.47282 | 30743 ft | 439 kts | 188° |
| 2026-05-05 23:47 | -38.29049 | 174.46862 | 31155 ft | 437 kts | 188° |
| 2026-05-05 23:47 | -38.32068 | 174.46440 | 31540 ft | 436 kts | 188° |
| 2026-05-05 23:48 | -38.35077 | 174.46021 | 31940 ft | 435 kts | 188° |
| 2026-05-05 23:48 | -38.38080 | 174.45605 | 32343 ft | 433 kts | 188° |
| 2026-05-05 23:48 | -38.41072 | 174.45186 | 32751 ft | 432 kts | 188° |
| 2026-05-05 23:48 | -38.44057 | 174.44769 | 33164 ft | 431 kts | 188° |
| 2026-05-05 23:49 | -38.47031 | 174.44353 | 33580 ft | 430 kts | 189° |
| 2026-05-05 23:49 | -38.49997 | 174.43937 | 34003 ft | 428 kts | 189° |
| 2026-05-05 23:49 | -38.52961 | 174.43520 | 34431 ft | 427 kts | 189° |
| 2026-05-05 23:49 | -38.55917 | 174.43105 | 34784 ft | 427 kts | 189° |
| 2026-05-05 23:50 | -38.58838 | 174.42693 | 35109 ft | 427 kts | 189° |
| 2026-05-05 23:50 | -38.61797 | 174.42275 | 35430 ft | 428 kts | 189° |
| 2026-05-05 23:50 | -38.64758 | 174.41859 | 35736 ft | 429 kts | 189° |
| 2026-05-05 23:50 | -38.67732 | 174.41440 | 36039 ft | 430 kts | 189° |
| 2026-05-05 23:51 | -38.70706 | 174.41021 | 36324 ft | 431 kts | 189° |
| 2026-05-05 23:51 | -38.73693 | 174.40599 | 36413 ft | 433 kts | 189° |
| 2026-05-05 23:51 | -38.79693 | 174.39749 | 36422 ft | 434 kts | 189° |
| 2026-05-05 23:52 | -38.85704 | 174.38893 | 36439 ft | 435 kts | 189° |
| 2026-05-05 23:52 | -38.91719 | 174.38042 | 36424 ft | 435 kts | 189° |
| 2026-05-05 23:53 | -38.97725 | 174.37183 | 36422 ft | 435 kts | 189° |
| 2026-05-05 23:53 | -39.03741 | 174.36330 | 36428 ft | 435 kts | 189° |
| 2026-05-05 23:54 | -39.09816 | 174.36209 | 36436 ft | 439 kts | 180° |
| 2026-05-05 23:54 | -39.15924 | 174.36561 | 36432 ft | 439 kts | 180° |
| 2026-05-05 23:55 | -39.22031 | 174.36907 | 36444 ft | 439 kts | 180° |
| 2026-05-05 23:55 | -39.28149 | 174.37259 | 36429 ft | 440 kts | 180° |
| 2026-05-05 23:56 | -39.34263 | 174.37608 | 36429 ft | 440 kts | 180° |
| 2026-05-05 23:56 | -39.40340 | 174.37956 | 36425 ft | 440 kts | 180° |
| 2026-05-05 23:57 | -39.46464 | 174.38313 | 36429 ft | 440 kts | 180° |
| 2026-05-05 23:57 | -39.52582 | 174.38677 | 36426 ft | 440 kts | 180° |
| 2026-05-05 23:58 | -39.58711 | 174.39032 | 36419 ft | 441 kts | 180° |
| 2026-05-05 23:58 | -39.64833 | 174.39392 | 36414 ft | 441 kts | 180° |
| 2026-05-05 23:59 | -39.70965 | 174.39746 | 36423 ft | 441 kts | 180° |
| 2026-05-05 23:59 | -39.77096 | 174.40101 | 36413 ft | 441 kts | 180° |
| 2026-05-06 00:00 | -39.83238 | 174.40457 | 36413 ft | 441 kts | 180° |
| 2026-05-06 00:00 | -39.89379 | 174.40825 | 36414 ft | 442 kts | 180° |
| 2026-05-06 00:01 | -39.94489 | 174.41127 | 36418 ft | 442 kts | 180° |
| 2026-05-06 00:01 | -40.00637 | 174.41482 | 36412 ft | 442 kts | 180° |
| 2026-05-06 00:02 | -40.06797 | 174.41847 | 36411 ft | 442 kts | 180° |
| 2026-05-06 00:02 | -40.12954 | 174.42207 | 36418 ft | 442 kts | 180° |
| 2026-05-06 00:03 | -40.19109 | 174.42570 | 36413 ft | 443 kts | 180° |
| 2026-05-06 00:03 | -40.25263 | 174.42939 | 36411 ft | 443 kts | 180° |
| 2026-05-06 00:04 | -40.31416 | 174.43305 | 36410 ft | 443 kts | 180° |
| 2026-05-06 00:04 | -40.34489 | 174.43485 | 36111 ft | 441 kts | 180° |
| 2026-05-06 00:04 | -40.37552 | 174.43665 | 35727 ft | 440 kts | 180° |
| 2026-05-06 00:05 | -40.43660 | 174.44027 | 34949 ft | 439 kts | 180° |
| 2026-05-06 00:05 | -40.46709 | 174.44211 | 34348 ft | 439 kts | 180° |
| 2026-05-06 00:05 | -40.49707 | 174.44395 | 33696 ft | 433 kts | 180° |
| 2026-05-06 00:06 | -40.52710 | 174.44575 | 33697 ft | 434 kts | 181° |
| 2026-05-06 00:06 | -40.58767 | 174.44925 | 33697 ft | 437 kts | 181° |
| 2026-05-06 00:07 | -40.64830 | 174.45291 | 33670 ft | 428 kts | 180° |
| 2026-05-06 00:07 | -40.67771 | 174.45476 | 33205 ft | 421 kts | 180° |
| 2026-05-06 00:07 | -40.70681 | 174.45646 | 32739 ft | 414 kts | 182° |
| 2026-05-06 00:07 | -40.73477 | 174.45154 | 32275 ft | 401 kts | 201° |
| 2026-05-06 00:08 | -40.75928 | 174.43511 | 31827 ft | 392 kts | 217° |
| 2026-05-06 00:08 | -40.77898 | 174.41082 | 31388 ft | 387 kts | 231° |
| 2026-05-06 00:08 | -40.79328 | 174.38109 | 30946 ft | 384 kts | 244° |
| 2026-05-06 00:08 | -40.80139 | 174.34768 | 30518 ft | 383 kts | 258° |
| 2026-05-06 00:09 | -40.80256 | 174.31258 | 30018 ft | 385 kts | 272° |
| 2026-05-06 00:09 | -40.79640 | 174.27808 | 29507 ft | 389 kts | 288° |
| 2026-05-06 00:09 | -40.78322 | 174.24671 | 29009 ft | 395 kts | 303° |
| 2026-05-06 00:09 | -40.76390 | 174.22081 | 28534 ft | 400 kts | 319° |
| 2026-05-06 00:10 | -40.73950 | 174.20268 | 28049 ft | 406 kts | 336° |
| 2026-05-06 00:10 | -40.71188 | 174.19432 | 27587 ft | 411 kts | 352° |
| 2026-05-06 00:10 | -40.68322 | 174.19218 | 27133 ft | 411 kts | 356° |
| 2026-05-06 00:10 | -40.65462 | 174.19210 | 26684 ft | 411 kts | 358° |
| 2026-05-06 00:11 | -40.62609 | 174.19326 | 26241 ft | 409 kts | 360° |
| 2026-05-06 00:11 | -40.59767 | 174.19484 | 25807 ft | 408 kts | 360° |
| 2026-05-06 00:11 | -40.56946 | 174.19828 | 25378 ft | 409 kts | 11° |
| 2026-05-06 00:11 | -40.54275 | 174.21110 | 24956 ft | 410 kts | 27° |
| 2026-05-06 00:12 | -40.51968 | 174.23298 | 24541 ft | 410 kts | 44° |
| 2026-05-06 00:12 | -40.50218 | 174.26178 | 24137 ft | 408 kts | 60° |
| 2026-05-06 00:12 | -40.49142 | 174.29600 | 23692 ft | 405 kts | 77° |
| 2026-05-06 00:12 | -40.48848 | 174.33245 | 23203 ft | 400 kts | 94° |
| 2026-05-06 00:13 | -40.49330 | 174.36808 | 22726 ft | 395 kts | 110° |
| 2026-05-06 00:13 | -40.50508 | 174.40024 | 22263 ft | 389 kts | 125° |
| 2026-05-06 00:13 | -40.52271 | 174.42672 | 21794 ft | 383 kts | 141° |
| 2026-05-06 00:13 | -40.54473 | 174.44578 | 21340 ft | 377 kts | 157° |
| 2026-05-06 00:14 | -40.56936 | 174.45640 | 20886 ft | 370 kts | 172° |
| 2026-05-06 00:14 | -40.59484 | 174.45987 | 20446 ft | 366 kts | 179° |
| 2026-05-06 00:14 | -40.62016 | 174.46067 | 19999 ft | 363 kts | 182° |
| 2026-05-06 00:14 | -40.64539 | 174.46000 | 19573 ft | 361 kts | 184° |
| 2026-05-06 00:15 | -40.67041 | 174.45872 | 19151 ft | 359 kts | 184° |
| 2026-05-06 00:15 | -40.69534 | 174.45740 | 18731 ft | 358 kts | 184° |
| 2026-05-06 00:15 | -40.71996 | 174.45428 | 18259 ft | 354 kts | 196° |
| 2026-05-06 00:15 | -40.74243 | 174.44209 | 17775 ft | 346 kts | 216° |
| 2026-05-06 00:16 | -40.76037 | 174.42167 | 17307 ft | 338 kts | 234° |
| 2026-05-06 00:16 | -40.77215 | 174.39546 | 16849 ft | 330 kts | 252° |
| 2026-05-06 00:16 | -40.77705 | 174.36633 | 16392 ft | 323 kts | 270° |
| 2026-05-06 00:16 | -40.77506 | 174.33728 | 15941 ft | 317 kts | 287° |
| 2026-05-06 00:17 | -40.76681 | 174.31068 | 15493 ft | 313 kts | 302° |
| 2026-05-06 00:17 | -40.75342 | 174.28881 | 15070 ft | 310 kts | 318° |
| 2026-05-06 00:17 | -40.73567 | 174.27290 | 14632 ft | 310 kts | 334° |
| 2026-05-06 00:17 | -40.71511 | 174.26459 | 14207 ft | 311 kts | 350° |
| 2026-05-06 00:18 | -40.69358 | 174.26241 | 13736 ft | 311 kts | 356° |
| 2026-05-06 00:18 | -40.67195 | 174.26226 | 13269 ft | 310 kts | 358° |
| 2026-05-06 00:18 | -40.65038 | 174.26302 | 12806 ft | 309 kts | 359° |
| 2026-05-06 00:18 | -40.62893 | 174.26404 | 12352 ft | 308 kts | 359° |
| 2026-05-06 00:19 | -40.60754 | 174.26498 | 11905 ft | 307 kts | 359° |
| 2026-05-06 00:19 | -40.58638 | 174.26861 | 11477 ft | 309 kts | 13° |
| 2026-05-06 00:19 | -40.56702 | 174.28002 | 11356 ft | 302 kts | 29° |
| 2026-05-06 00:19 | -40.55121 | 174.29736 | 11366 ft | 291 kts | 44° |
| 2026-05-06 00:20 | -40.53985 | 174.31877 | 11372 ft | 282 kts | 59° |
| 2026-05-06 00:20 | -40.53340 | 174.34261 | 11370 ft | 273 kts | 75° |
| 2026-05-06 00:20 | -40.53196 | 174.36726 | 11379 ft | 271 kts | 91° |
| 2026-05-06 00:20 | -40.53533 | 174.39165 | 11370 ft | 273 kts | 107° |
| 2026-05-06 00:21 | -40.54335 | 174.41441 | 11196 ft | 276 kts | 123° |
| 2026-05-06 00:21 | -40.55574 | 174.43351 | 10952 ft | 274 kts | 140° |
| 2026-05-06 00:21 | -40.57110 | 174.44741 | 10762 ft | 269 kts | 156° |
| 2026-05-06 00:21 | -40.58875 | 174.45580 | 10949 ft | 269 kts | 170° |
| 2026-05-06 00:22 | -40.60732 | 174.45894 | 11038 ft | 269 kts | 180° |
| 2026-05-06 00:22 | -40.62595 | 174.45950 | 11054 ft | 268 kts | 184° |
| 2026-05-06 00:22 | -40.64436 | 174.45904 | 11210 ft | 270 kts | 185° |
| 2026-05-06 00:22 | -40.66309 | 174.45825 | 12142 ft | 269 kts | 185° |
| 2026-05-06 00:23 | -40.68189 | 174.45750 | 13057 ft | 271 kts | 185° |
| 2026-05-06 00:23 | -40.70089 | 174.45686 | 13915 ft | 277 kts | 183° |
| 2026-05-06 00:23 | -40.72103 | 174.45786 | 14257 ft | 302 kts | 178° |
| 2026-05-06 00:23 | -40.74278 | 174.46094 | 14512 ft | 327 kts | 174° |
| 2026-05-06 00:24 | -40.76611 | 174.46525 | 14723 ft | 351 kts | 173° |
| 2026-05-06 00:24 | -40.79104 | 174.47025 | 14870 ft | 374 kts | 173° |
| 2026-05-06 00:24 | -40.81761 | 174.47557 | 15015 ft | 397 kts | 173° |
| 2026-05-06 00:24 | -40.84563 | 174.48098 | 15136 ft | 417 kts | 173° |
| 2026-05-06 00:25 | -40.87477 | 174.48639 | 15556 ft | 427 kts | 174° |
| 2026-05-06 00:25 | -40.90441 | 174.49169 | 15780 ft | 430 kts | 174° |
| 2026-05-06 00:25 | -40.93348 | 174.49682 | 14851 ft | 415 kts | 174° |
| 2026-05-06 00:25 | -40.96189 | 174.50180 | 13776 ft | 410 kts | 174° |
| 2026-05-06 00:26 | -40.98995 | 174.50671 | 12932 ft | 400 kts | 174° |
| 2026-05-06 00:26 | -41.01706 | 174.51147 | 12217 ft | 386 kts | 174° |
| 2026-05-06 00:26 | -41.04350 | 174.51612 | 11521 ft | 384 kts | 175° |
| 2026-05-06 00:26 | -41.06975 | 174.52075 | 11128 ft | 374 kts | 174° |
| 2026-05-06 00:27 | -41.09494 | 174.52545 | 11005 ft | 356 kts | 174° |
| 2026-05-06 00:27 | -41.11892 | 174.53050 | 10883 ft | 342 kts | 173° |
| 2026-05-06 00:27 | -41.14194 | 174.53562 | 10752 ft | 329 kts | 173° |
| 2026-05-06 00:27 | -41.16412 | 174.54061 | 10623 ft | 318 kts | 173° |
| 2026-05-06 00:28 | -41.18566 | 174.54543 | 10465 ft | 309 kts | 173° |
| 2026-05-06 00:28 | -41.20688 | 174.55008 | 10391 ft | 309 kts | 173° |
| 2026-05-06 00:28 | -41.22816 | 174.55468 | 10269 ft | 310 kts | 174° |
| 2026-05-06 00:28 | -41.24944 | 174.55925 | 10122 ft | 309 kts | 174° |
| 2026-05-06 00:29 | -41.27068 | 174.56380 | 9964 ft | 309 kts | 174° |
| 2026-05-06 00:29 | -41.29212 | 174.56893 | 9355 ft | 316 kts | 167° |
| 2026-05-06 00:29 | -41.31244 | 174.57897 | 8877 ft | 310 kts | 160° |
| 2026-05-06 00:29 | -41.33191 | 174.59014 | 8233 ft | 306 kts | 160° |
| 2026-05-06 00:30 | -41.35131 | 174.60140 | 7605 ft | 302 kts | 160° |
| 2026-05-06 00:30 | -41.37010 | 174.61237 | 7378 ft | 284 kts | 160° |
| 2026-05-06 00:30 | -41.38763 | 174.62265 | 7159 ft | 269 kts | 161° |
| 2026-05-06 00:30 | -41.40451 | 174.63252 | 6926 ft | 262 kts | 161° |
| 2026-05-06 00:31 | -41.42145 | 174.64232 | 6498 ft | 268 kts | 161° |
| 2026-05-06 00:31 | -41.43830 | 174.65206 | 6126 ft | 262 kts | 161° |
| 2026-05-06 00:31 | -41.45510 | 174.66175 | 5543 ft | 263 kts | 162° |
| 2026-05-06 00:31 | -41.47185 | 174.67204 | 4944 ft | 267 kts | 154° |
| 2026-05-06 00:32 | -41.48559 | 174.68863 | 4610 ft | 263 kts | 128° |
| 2026-05-06 00:32 | -41.49360 | 174.70959 | 4462 ft | 247 kts | 104° |
| 2026-05-06 00:32 | -41.49611 | 174.73167 | 4062 ft | 241 kts | 88° |
| 2026-05-06 00:32 | -41.49698 | 174.75439 | 3546 ft | 245 kts | 86° |
| 2026-05-06 00:33 | -41.49479 | 174.77563 | 3335 ft | 216 kts | 54° |
| 2026-05-06 00:33 | -41.48655 | 174.78981 | 3259 ft | 176 kts | 24° |
| 2026-05-06 00:33 | -41.47638 | 174.79643 | 2974 ft | 154 kts | 0° |
| 2026-05-06 00:33 | -41.46627 | 174.79765 | 2716 ft | 142 kts | 351° |
| 2026-05-06 00:34 | -41.45668 | 174.79828 | 2483 ft | 137 kts | 352° |
| 2026-05-06 00:34 | -41.44723 | 174.79892 | 2272 ft | 135 kts | 352° |
| 2026-05-06 00:34 | -41.43799 | 174.79956 | 2075 ft | 129 kts | 354° |
| 2026-05-06 00:34 | -41.42927 | 174.80017 | 1997 ft | 124 kts | 353° |
| 2026-05-06 00:35 | -41.42060 | 174.80074 | 1760 ft | 126 kts | 354° |
| 2026-05-06 00:35 | -41.41196 | 174.80133 | 1566 ft | 121 kts | 354° |
| 2026-05-06 00:35 | -41.40344 | 174.80191 | 1383 ft | 122 kts | 355° |
| 2026-05-06 00:35 | -41.39515 | 174.80249 | 1245 ft | 120 kts | 356° |
| 2026-05-06 00:36 | -41.38679 | 174.80299 | 1047 ft | 120 kts | 359° |
| 2026-05-06 00:36 | -41.37827 | 174.80344 | 955 ft | 121 kts | 360° |
| 2026-05-06 00:36 | -41.36975 | 174.80360 | 793 ft | 122 kts | 1° |
| 2026-05-06 00:36 | -41.36127 | 174.80427 | 585 ft | 124 kts | 3° |
| 2026-05-06 00:37 | -41.35284 | 174.80518 | 412 ft | 121 kts | 4° |
| 2026-05-06 00:37 | -41.34439 | 174.80578 | 304 ft | 121 kts | 1° |
| 2026-05-06 00:37 | -41.33578 | 174.80630 | 62 ft | 124 kts | 2° |
| 2026-05-06 00:37 | -41.32793 | 174.80680 | 32 ft | 101 kts | 2° |
| 2026-05-06 00:38 | -41.31974 | 174.80750 | 371 ft | 137 kts | 3° |
| 2026-05-06 00:38 | -41.30894 | 174.80811 | 847 ft | 174 kts | 1° |
| 2026-05-06 00:38 | -41.29620 | 174.80901 | 1796 ft | 181 kts | 359° |
| 2026-05-06 00:38 | -41.28385 | 174.81149 | 2618 ft | 183 kts | 9° |
| 2026-05-06 00:39 | -41.27293 | 174.82175 | 2904 ft | 204 kts | 44° |
| 2026-05-06 00:39 | -41.26810 | 174.84008 | 3001 ft | 226 kts | 80° |
| 2026-05-06 00:39 | -41.27181 | 174.86084 | 3014 ft | 239 kts | 117° |
| 2026-05-06 00:39 | -41.28336 | 174.87634 | 3009 ft | 233 kts | 155° |
| 2026-05-06 00:40 | -41.29838 | 174.88216 | 3024 ft | 221 kts | 179° |
| 2026-05-06 00:40 | -41.31362 | 174.88419 | 3023 ft | 220 kts | 183° |
| 2026-05-06 00:40 | -41.32869 | 174.88469 | 2993 ft | 214 kts | 192° |
| 2026-05-06 00:40 | -41.34377 | 174.88271 | 3025 ft | 226 kts | 196° |
| 2026-05-06 00:41 | -41.35961 | 174.87999 | 3032 ft | 231 kts | 197° |
| 2026-05-06 00:41 | -41.37546 | 174.87707 | 2992 ft | 230 kts | 198° |
| 2026-05-06 00:41 | -41.39141 | 174.87397 | 3011 ft | 231 kts | 198° |
| 2026-05-06 00:41 | -41.40732 | 174.87083 | 3014 ft | 231 kts | 197° |
| 2026-05-06 00:42 | -41.42322 | 174.86767 | 3004 ft | 231 kts | 198° |
| 2026-05-06 00:42 | -41.43843 | 174.86301 | 2849 ft | 216 kts | 219° |
| 2026-05-06 00:42 | -41.44730 | 174.84943 | 2611 ft | 183 kts | 266° |
| 2026-05-06 00:42 | -41.44745 | 174.83340 | 2397 ft | 172 kts | 284° |
| 2026-05-06 00:43 | -41.44418 | 174.81876 | 2109 ft | 159 kts | 314° |
| 2026-05-06 00:43 | -41.43628 | 174.80954 | 1996 ft | 142 kts | 322° |
| 2026-05-06 00:43 | -41.42851 | 174.80282 | 1841 ft | 131 kts | 332° |
| 2026-05-06 00:43 | -41.42004 | 174.79959 | 1685 ft | 123 kts | 347° |
| 2026-05-06 00:44 | -41.41148 | 174.80019 | 1509 ft | 123 kts | 356° |
| 2026-05-06 00:44 | -41.40568 | 174.80077 | 1409 ft | 122 kts | 358° |
| 2026-05-06 00:44 | -41.39465 | 174.80295 | 1185 ft | 123 kts | 7° |
| 2026-05-06 00:44 | -41.38636 | 174.80543 | 1093 ft | 122 kts | 4° |
| 2026-05-06 00:45 | -41.38055 | 174.80600 | 907 ft | 122 kts | 360° |
| 2026-05-06 00:45 | -41.37217 | 174.80547 | 795 ft | 121 kts | 355° |
| 2026-05-06 00:45 | -41.36114 | 174.80354 | 540 ft | 120 kts | 354° |
| 2026-05-06 00:45 | -41.35536 | 174.80340 | 456 ft | 123 kts | 5° |
| 2026-05-06 00:46 | -41.34702 | 174.80502 | 332 ft | 119 kts | 6° |
| 2026-05-06 00:46 | -41.33870 | 174.80616 | 145 ft | 119 kts | 1° |
| 2026-05-06 00:46 | -41.33073 | 174.80655 | 32 ft | 106 kts | 5° |
| 2026-05-06 00:46 | -41.32532 | 174.80698 | 30 ft | 38 kts | 4° |
| 2026-05-06 00:47 | -41.32419 | 174.80720 | 35 ft | 10 kts | 43° |
| 2026-05-06 00:47 | -41.32416 | 174.80818 | 34 ft | 9 kts | 114° |
| 2026-05-06 00:47 | -41.32493 | 174.80831 | 31 ft | 15 kts | 184° |
| 2026-05-06 00:47 | -41.32615 | 174.80821 | 28 ft | 17 kts | 181° |
| 2026-05-06 00:48 | -41.32690 | 174.80818 | 26 ft | 10 kts | 182° |
| 2026-05-06 00:48 | -41.32776 | 174.80812 | 26 ft | 14 kts | 183° |
| 2026-05-06 00:48 | -41.32828 | 174.80854 | 26 ft | 11 kts | 110° |
| 2026-05-06 00:48 | -41.32895 | 174.80880 | 26 ft | 9 kts | 178° |
| 2026-05-06 00:49 | -41.32918 | 174.80936 | 26 ft | 6 kts | 128° |
| 2026-05-06 00:49 | -41.32954 | 174.80959 | 26 ft | 3 kts | 159° |
| 2026-05-06 00:49 | -41.32977 | 174.80971 | 26 ft | 2 kts | 159° |
| 2026-05-06 00:49 | -41.32983 | 174.80974 | 26 ft | 0 kts | 158° |